createdAt,value
2018-12-26T00:00:54.316Z,18.98
2018-12-26T00:03:35.271Z,18.50
2018-12-26T00:06:16.186Z,19.95
2018-12-26T00:08:57.295Z,18.60
2018-12-26T00:11:38.112Z,16.60
2018-12-26T00:14:18.854Z,17.20
2018-12-26T00:16:59.757Z,17.80
2018-12-26T00:19:40.550Z,18.20
2018-12-26T00:22:21.253Z,17.35
2018-12-26T00:25:02.051Z,15.53
2018-12-26T00:27:42.721Z,16.77
2018-12-26T00:30:23.439Z,15.85
2018-12-26T00:33:04.024Z,15.15
2018-12-26T00:35:44.572Z,15.35
2018-12-26T00:38:25.217Z,14.15
2018-12-26T00:41:05.607Z,13.35
2018-12-26T00:43:46.073Z,14.65
2018-12-26T00:46:26.658Z,16.10
2018-12-26T00:49:07.295Z,14.58
2018-12-26T00:51:47.940Z,13.05
2018-12-26T00:54:28.336Z,13.95
2018-12-26T00:57:08.891Z,11.70
2018-12-26T00:59:37.441Z,12.47
2018-12-26T01:02:25.307Z,13.38
2018-12-26T01:05:13.276Z,12.85
2018-12-26T01:08:01.149Z,12.10
2018-12-26T01:10:49.039Z,14.78
2018-12-26T01:13:36.907Z,12.47
2018-12-26T01:16:24.809Z,13.13
2018-12-26T01:19:12.681Z,12.63
2018-12-26T01:22:00.572Z,12.60
2018-12-26T01:24:48.447Z,12.98
2018-12-26T01:27:36.338Z,12.43
2018-12-26T01:30:24.137Z,11.18
2018-12-26T01:33:12.026Z,12.20
2018-12-26T01:35:59.899Z,13.03
2018-12-26T01:38:47.796Z,14.98
2018-12-26T01:41:35.735Z,16.20
2018-12-26T01:44:23.631Z,14.95
2018-12-26T01:47:11.431Z,14.07
2018-12-26T01:49:59.335Z,12.65
2018-12-26T01:52:47.198Z,14.87
2018-12-26T01:55:35.027Z,15.72
2018-12-26T01:58:22.903Z,15.28
2018-12-26T02:01:10.723Z,15.25
2018-12-26T02:03:58.674Z,14.03
2018-12-26T02:06:46.571Z,13.32
2018-12-26T02:09:34.444Z,13.62
2018-12-26T02:12:22.341Z,13.62
2018-12-26T02:15:10.203Z,13.15
2018-12-26T02:17:58.023Z,15.53
2018-12-26T02:20:45.992Z,15.43
2018-12-26T02:23:27.151Z,16.80
2018-12-26T02:26:07.628Z,14.40
2018-12-26T02:28:48.264Z,14.68
2018-12-26T02:31:28.735Z,16.17
2018-12-26T02:34:09.370Z,14.93
2018-12-26T02:36:50.467Z,14.13
2018-12-26T02:39:31.121Z,13.38
2018-12-26T02:42:12.015Z,14.95
2018-12-26T02:44:52.364Z,15.30
2018-12-26T02:47:33.012Z,14.30
2018-12-26T02:50:13.716Z,14.47
2018-12-26T02:52:54.452Z,12.90
2018-12-26T02:55:35.428Z,13.88
2018-12-26T02:58:15.888Z,13.30
2018-12-26T03:00:57.039Z,13.43
2018-12-26T03:03:37.640Z,11.78
2018-12-26T03:06:18.564Z,12.33
2018-12-26T03:08:59.255Z,12.70
2018-12-26T03:11:39.899Z,12.23
2018-12-26T03:14:20.861Z,11.30
2018-12-26T03:17:02.016Z,12.37
2018-12-26T03:19:42.740Z,12.40
2018-12-26T03:22:23.421Z,12.28
2018-12-26T03:25:04.252Z,12.88
2018-12-26T03:27:44.829Z,12.73
2018-12-26T03:30:25.591Z,13.65
2018-12-26T03:33:06.220Z,14.45
2018-12-26T03:35:47.291Z,12.45
2018-12-26T03:38:27.976Z,12.00
2018-12-26T03:41:08.699Z,13.88
2018-12-26T03:43:49.553Z,11.78
2018-12-26T03:46:30.240Z,12.25
2018-12-26T03:49:10.815Z,11.45
2018-12-26T03:51:51.127Z,12.53
2018-12-26T03:54:31.676Z,12.93
2018-12-26T03:57:12.308Z,12.45
2018-12-26T03:59:52.732Z,14.65
2018-12-26T04:02:33.257Z,13.70
2018-12-26T04:05:14.091Z,12.65
2018-12-26T04:07:54.671Z,12.13
2018-12-26T04:10:35.395Z,12.03
2018-12-26T04:13:16.382Z,12.37
2018-12-26T04:15:57.238Z,11.70
2018-12-26T04:18:38.175Z,11.05
2018-12-26T04:21:18.717Z,11.33
2018-12-26T04:23:59.439Z,10.05
2018-12-26T04:26:39.965Z,10.60
2018-12-26T04:29:20.351Z,12.33
2018-12-26T04:32:01.072Z,10.58
2018-12-26T04:34:42.137Z,11.40
2018-12-26T04:37:22.973Z,10.08
2018-12-26T04:40:03.378Z,10.53
2018-12-26T04:42:43.955Z,10.68
2018-12-26T04:45:24.959Z,11.90
2018-12-26T04:48:05.718Z,12.47
2018-12-26T04:50:46.411Z,11.30
2018-12-26T04:53:27.220Z,10.70
2018-12-26T04:56:08.132Z,10.13
2018-12-26T04:58:48.867Z,11.15
2018-12-26T05:01:29.415Z,10.30
2018-12-26T05:04:10.036Z,10.75
2018-12-26T05:06:51.029Z,9.00
2018-12-26T05:09:31.909Z,11.10
2018-12-26T05:12:12.428Z,11.40
2018-12-26T05:14:53.264Z,11.80
2018-12-26T05:17:33.603Z,9.63
2018-12-26T05:20:13.979Z,10.82
2018-12-26T05:22:54.447Z,10.98
2018-12-26T05:25:35.196Z,9.23
2018-12-26T05:28:15.948Z,9.25
2018-12-26T05:30:56.791Z,9.35
2018-12-26T05:33:37.355Z,9.90
2018-12-26T05:36:18.029Z,11.30
2018-12-26T05:38:59.046Z,10.50
2018-12-26T05:41:39.862Z,9.08
2018-12-26T05:44:20.764Z,10.40
2018-12-26T05:47:01.435Z,10.08
2018-12-26T05:49:42.226Z,11.25
2018-12-26T05:52:22.784Z,9.73
2018-12-26T05:55:03.519Z,10.88
2018-12-26T05:57:44.293Z,10.30
2018-12-26T06:00:24.907Z,10.82
2018-12-26T06:03:05.344Z,10.05
2018-12-26T06:05:45.919Z,10.13
2018-12-26T06:08:26.856Z,11.60
2018-12-26T06:11:05.792Z,11.93
2018-12-26T06:13:53.658Z,12.00
2018-12-26T06:16:41.552Z,13.53
2018-12-26T06:19:29.433Z,12.70
2018-12-26T06:22:10.495Z,12.50
2018-12-26T06:24:51.524Z,11.80
2018-12-26T06:27:32.147Z,11.95
2018-12-26T06:30:13.019Z,12.13
2018-12-26T06:32:53.960Z,10.78
2018-12-26T06:35:34.703Z,11.65
2018-12-26T06:38:15.600Z,9.65
2018-12-26T06:40:56.538Z,9.35
2018-12-26T06:43:37.447Z,10.00
2018-12-26T06:46:18.631Z,10.18
2018-12-26T06:48:59.707Z,9.18
2018-12-26T06:51:40.355Z,9.70
2018-12-26T06:54:21.223Z,8.15
2018-12-26T06:57:01.832Z,9.33
2018-12-26T06:59:42.816Z,10.60
2018-12-26T07:02:23.568Z,10.85
2018-12-26T07:05:04.258Z,11.97
2018-12-26T07:07:44.660Z,11.35
2018-12-26T07:10:25.570Z,9.68
2018-12-26T07:13:06.605Z,10.80
2018-12-26T07:15:47.108Z,10.88
2018-12-26T07:18:27.655Z,11.28
2018-12-26T07:21:08.768Z,10.50
2018-12-26T07:23:49.701Z,11.08
2018-12-26T07:26:30.904Z,9.40
2018-12-26T07:29:11.855Z,10.50
2018-12-26T07:31:52.660Z,12.55
2018-12-26T07:34:41.971Z,11.88
2018-12-26T07:37:15.393Z,12.23
2018-12-26T07:39:56.401Z,12.07
2018-12-26T07:42:37.249Z,10.10
2018-12-26T07:45:17.938Z,11.08
2018-12-26T07:47:58.811Z,10.13
2018-12-26T07:50:40.068Z,14.20
2018-12-26T07:53:20.775Z,14.68
2018-12-26T07:56:01.304Z,10.15
2018-12-26T07:58:42.333Z,10.78
2018-12-26T08:01:23.134Z,12.07
2018-12-26T08:04:04.043Z,10.63
2018-12-26T08:06:45.332Z,10.93
2018-12-26T08:09:25.777Z,9.03
2018-12-26T08:12:06.215Z,9.43
2018-12-26T08:14:46.607Z,8.30
2018-12-26T08:17:27.119Z,8.48
2018-12-26T08:20:07.705Z,7.53
2018-12-26T08:22:48.176Z,7.30
2018-12-26T08:25:28.689Z,8.13
2018-12-26T08:28:09.553Z,8.13
2018-12-26T08:30:50.503Z,6.83
2018-12-26T08:33:31.503Z,7.42
2018-12-26T08:36:12.416Z,8.78
2018-12-26T08:38:52.748Z,9.18
2018-12-26T08:41:33.654Z,6.90
2018-12-26T08:44:14.171Z,7.53
2018-12-26T08:46:54.624Z,7.42
2018-12-26T08:49:34.944Z,6.45
2018-12-26T08:52:15.740Z,7.40
2018-12-26T08:54:56.466Z,6.87
2018-12-26T08:57:37.262Z,7.30
2018-12-26T09:00:18.159Z,7.75
2018-12-26T09:02:58.718Z,7.33
2018-12-26T09:05:39.574Z,6.33
2018-12-26T09:08:20.259Z,6.00
2018-12-26T09:11:00.745Z,6.93
2018-12-26T09:13:41.352Z,6.23
2018-12-26T09:16:21.825Z,5.90
2018-12-26T09:19:02.511Z,6.00
2018-12-26T09:21:43.432Z,5.30
2018-12-26T09:24:24.023Z,6.17
2018-12-26T09:27:04.668Z,5.90
2018-12-26T09:29:45.687Z,5.17
2018-12-26T09:32:26.479Z,5.08
2018-12-26T09:35:07.241Z,5.72
2018-12-26T09:37:47.828Z,4.47
2018-12-26T09:40:28.839Z,4.20
2018-12-26T09:43:09.211Z,4.37
2018-12-26T09:45:50.031Z,4.87
2018-12-26T09:48:31.128Z,4.35
2018-12-26T09:51:11.676Z,4.12
2018-12-26T09:53:52.694Z,3.65
2018-12-26T09:56:33.642Z,4.20
2018-12-26T09:59:14.864Z,3.02
2018-12-26T10:01:55.168Z,3.50
2018-12-26T10:04:35.928Z,3.20
2018-12-26T10:07:16.751Z,3.30
2018-12-26T10:09:57.571Z,3.52
2018-12-26T10:12:38.472Z,4.17
2018-12-26T10:15:19.094Z,3.80
2018-12-26T10:17:59.558Z,4.35
2018-12-26T10:20:40.375Z,4.65
2018-12-26T10:23:21.350Z,4.00
2018-12-26T10:26:01.652Z,4.90
2018-12-26T10:28:42.479Z,6.20
2018-12-26T10:31:23.213Z,5.30
2018-12-26T10:34:03.823Z,4.78
2018-12-26T10:36:44.673Z,5.53
2018-12-26T10:39:25.209Z,5.80
2018-12-26T10:42:06.082Z,4.80
2018-12-26T10:44:46.940Z,4.60
2018-12-26T10:47:27.847Z,4.90
2018-12-26T10:50:08.511Z,4.60
2018-12-26T10:52:49.196Z,5.03
2018-12-26T10:55:30.059Z,4.50
2018-12-26T10:58:12.356Z,4.43
2018-12-26T11:00:53.328Z,4.50
2018-12-26T11:03:33.707Z,4.83
2018-12-26T11:06:14.721Z,4.50
2018-12-26T11:08:56.003Z,4.33
2018-12-26T11:11:36.864Z,4.23
2018-12-26T11:14:17.620Z,4.40
2018-12-26T11:16:58.630Z,4.00
2018-12-26T11:19:39.295Z,3.90
2018-12-26T11:22:19.986Z,3.77
2018-12-26T11:25:00.416Z,3.63
2018-12-26T11:27:41.104Z,3.63
2018-12-26T11:30:22.020Z,3.17
2018-12-26T11:33:03.404Z,3.30
2018-12-26T11:35:44.655Z,3.40
2018-12-26T11:38:25.027Z,2.67
2018-12-26T11:41:06.192Z,1.97
2018-12-26T11:43:47.067Z,2.40
2018-12-26T11:46:27.615Z,2.23
2018-12-26T11:49:08.484Z,2.60
2018-12-26T11:51:49.364Z,2.30
2018-12-26T11:54:29.728Z,2.77
2018-12-26T11:57:10.276Z,2.50
2018-12-26T11:59:50.813Z,2.33
2018-12-26T12:02:31.132Z,2.70
2018-12-26T12:05:11.514Z,2.60
2018-12-26T12:07:51.954Z,2.73
2018-12-26T12:10:33.100Z,2.60
2018-12-26T12:13:14.160Z,2.60
2018-12-26T12:15:54.875Z,2.00
2018-12-26T12:18:35.763Z,2.60
2018-12-26T12:21:16.450Z,2.60
2018-12-26T12:23:57.268Z,2.50
2018-12-26T12:26:38.150Z,2.60
2018-12-26T12:29:19.041Z,2.13
2018-12-26T12:32:00.239Z,2.10
2018-12-26T12:34:41.031Z,2.13
2018-12-26T12:37:21.887Z,2.10
2018-12-26T12:40:02.452Z,2.70
2018-12-26T12:42:43.111Z,2.30
2018-12-26T12:45:23.779Z,2.33
2018-12-26T12:48:04.615Z,2.17
2018-12-26T12:50:45.607Z,3.03
2018-12-26T12:53:26.312Z,2.67
2018-12-26T12:56:11.826Z,2.37
2018-12-26T12:58:49.699Z,2.37
2018-12-26T13:01:30.240Z,2.13
2018-12-26T13:04:11.207Z,2.20
2018-12-26T13:06:51.782Z,2.20
2018-12-26T13:09:32.221Z,2.10
2018-12-26T13:12:12.816Z,2.13
2018-12-26T13:14:53.603Z,2.30
2018-12-26T13:17:34.250Z,2.23
2018-12-26T13:20:14.740Z,2.10
2018-12-26T13:22:55.388Z,2.23
2018-12-26T13:25:35.968Z,2.30
2018-12-26T13:28:16.690Z,2.10
2018-12-26T13:31:04.922Z,2.23
2018-12-26T13:33:40.037Z,2.20
2018-12-26T13:36:20.884Z,2.20
2018-12-26T13:39:01.636Z,2.00
2018-12-26T13:41:42.176Z,2.13
2018-12-26T13:44:22.648Z,1.70
2018-12-26T13:47:03.279Z,2.03
2018-12-26T13:49:44.036Z,2.27
2018-12-26T13:52:24.751Z,2.00
2018-12-26T13:55:05.715Z,2.00
2018-12-26T13:57:46.568Z,1.83
2018-12-26T14:00:27.324Z,1.97
2018-12-26T14:03:07.883Z,2.13
2018-12-26T14:05:48.463Z,2.30
2018-12-26T14:08:29.124Z,1.60
2018-12-26T14:11:09.692Z,1.50
2018-12-26T14:13:50.371Z,1.80
2018-12-26T14:16:31.279Z,1.57
2018-12-26T14:19:13.024Z,1.87
2018-12-26T14:21:53.568Z,1.82
2018-12-26T14:24:34.548Z,1.40
2018-12-26T14:27:15.324Z,2.15
2018-12-26T14:29:56.267Z,1.80
2018-12-26T14:32:37.429Z,1.30
2018-12-26T14:35:18.400Z,1.70
2018-12-26T14:37:59.199Z,1.45
2018-12-26T14:40:39.803Z,1.82
2018-12-26T14:43:20.263Z,2.08
2018-12-26T14:46:00.671Z,1.62
2018-12-26T14:48:41.392Z,1.47
2018-12-26T14:51:26.362Z,1.15
2018-12-26T14:54:04.568Z,1.52
2018-12-26T14:56:44.955Z,1.50
2018-12-26T14:59:25.760Z,1.60
2018-12-26T15:02:06.696Z,1.35
2018-12-26T15:04:47.544Z,1.40
2018-12-26T15:07:28.532Z,1.40
2018-12-26T15:10:09.239Z,1.65
2018-12-26T15:12:49.860Z,1.42
2018-12-26T15:15:30.563Z,1.60
2018-12-26T15:18:11.428Z,1.40
2018-12-26T15:20:52.115Z,1.20
2018-12-26T15:23:32.716Z,1.37
2018-12-26T15:26:13.604Z,1.30
2018-12-26T15:28:56.365Z,1.40
2018-12-26T15:31:37.139Z,1.30
2018-12-26T15:34:17.656Z,1.00
2018-12-26T15:36:58.064Z,1.60
2018-12-26T15:39:38.666Z,1.15
2018-12-26T15:42:19.496Z,1.20
2018-12-26T15:45:00.575Z,1.55
2018-12-26T15:47:41.422Z,1.22
2018-12-26T15:50:22.689Z,1.30
2018-12-26T15:53:03.015Z,1.10
2018-12-26T15:55:43.788Z,1.27
2018-12-26T15:58:24.500Z,5.90
2018-12-26T16:01:05.283Z,4.65
2018-12-26T16:03:45.988Z,4.72
2018-12-26T16:06:26.648Z,2.25
2018-12-26T16:09:07.208Z,4.80
2018-12-26T16:11:47.784Z,5.15
2018-12-26T16:14:28.536Z,3.77
2018-12-26T16:17:09.023Z,4.47
2018-12-26T16:19:49.763Z,5.58
2018-12-26T16:22:30.180Z,5.10
2018-12-26T16:25:11.004Z,5.33
2018-12-26T16:27:51.811Z,5.12
2018-12-26T16:30:32.664Z,5.83
2018-12-26T16:33:13.220Z,5.22
2018-12-26T16:35:53.899Z,5.85
2018-12-26T16:38:34.763Z,5.08
2018-12-26T16:41:15.744Z,4.40
2018-12-26T16:43:56.526Z,4.03
2018-12-26T16:46:37.215Z,3.77
2018-12-26T16:49:17.982Z,4.10
2018-12-26T16:51:58.704Z,5.10
2018-12-26T16:54:39.514Z,4.35
2018-12-26T16:57:20.388Z,5.35
2018-12-26T17:00:01.035Z,3.40
2018-12-26T17:02:41.786Z,5.00
2018-12-26T17:05:22.751Z,5.20
2018-12-26T17:08:03.754Z,3.52
2018-12-26T17:10:44.770Z,3.65
2018-12-26T17:13:25.137Z,4.40
2018-12-26T17:16:05.696Z,4.50
2018-12-26T17:18:46.032Z,4.60
2018-12-26T17:21:26.963Z,4.10
2018-12-26T17:24:16.361Z,3.80
2018-12-26T17:26:50.308Z,4.95
2018-12-26T17:29:31.243Z,4.20
2018-12-26T17:32:11.801Z,4.45
2018-12-26T17:34:52.341Z,4.35
2018-12-26T17:37:32.754Z,3.80
2018-12-26T17:40:13.279Z,4.33
2018-12-26T17:42:53.731Z,5.50
2018-12-26T17:45:34.543Z,4.47
2018-12-26T17:48:15.338Z,4.83
2018-12-26T17:50:56.232Z,4.45
2018-12-26T17:53:37.004Z,5.30
2018-12-26T17:56:17.507Z,4.12
2018-12-26T17:58:58.296Z,5.53
2018-12-26T18:01:39.207Z,5.33
2018-12-26T18:04:19.976Z,6.00
2018-12-26T18:07:00.495Z,5.35
2018-12-26T18:09:41.099Z,5.92
2018-12-26T18:12:22.015Z,6.05
2018-12-26T18:15:02.716Z,4.30
2018-12-26T18:17:43.579Z,4.80
2018-12-26T18:20:24.302Z,6.50
2018-12-26T18:23:05.080Z,6.00
2018-12-26T18:25:47.132Z,5.37
2018-12-26T18:28:27.729Z,6.28
2018-12-26T18:31:10.466Z,14.55
2018-12-26T18:33:51.365Z,9.33
2018-12-26T18:36:32.293Z,7.25
2018-12-26T18:39:13.288Z,10.78
2018-12-26T18:41:54.232Z,9.00
2018-12-26T18:44:35.099Z,7.35
2018-12-26T18:47:15.941Z,9.53
2018-12-26T18:49:56.851Z,8.78
2018-12-26T18:52:37.736Z,7.10
2018-12-26T18:55:18.206Z,5.83
2018-12-26T18:57:59.040Z,7.70
2018-12-26T19:00:39.794Z,10.50
2018-12-26T19:03:20.851Z,7.83
2018-12-26T19:06:02.694Z,6.30
2018-12-26T19:08:43.080Z,8.03
2018-12-26T19:11:23.484Z,8.58
2018-12-26T19:14:04.250Z,6.58
2018-12-26T19:16:45.044Z,6.60
2018-12-26T19:19:25.727Z,5.10
2018-12-26T19:22:06.571Z,6.60
2018-12-26T19:24:47.481Z,5.28
2018-12-26T19:27:28.121Z,4.70
2018-12-26T19:30:09.120Z,4.58
2018-12-26T19:32:49.860Z,4.55
2018-12-26T19:35:30.842Z,4.37
2018-12-26T19:38:11.339Z,4.70
2018-12-26T19:40:52.060Z,6.25
2018-12-26T19:43:32.937Z,4.97
2018-12-26T19:46:13.965Z,4.50
2018-12-26T19:48:55.012Z,4.00
2018-12-26T19:51:35.976Z,3.92
2018-12-26T19:54:16.802Z,3.75
2018-12-26T19:56:57.668Z,5.47
2018-12-26T19:59:38.748Z,10.13
2018-12-26T20:02:19.866Z,20.08
2018-12-26T20:07:42.552Z,16.25
2018-12-26T20:10:23.404Z,17.75
2018-12-26T20:13:03.935Z,18.62
2018-12-26T20:15:44.740Z,18.52
2018-12-26T20:18:25.460Z,19.25
2018-12-26T20:21:06.023Z,16.73
2018-12-26T20:23:46.716Z,16.90
2018-12-26T20:26:27.152Z,16.32
2018-12-26T20:29:08.100Z,14.63
2018-12-26T20:31:56.696Z,14.40
2018-12-26T20:34:31.353Z,14.93
2018-12-26T20:37:12.275Z,11.75
2018-12-26T20:39:52.975Z,12.35
2018-12-26T20:42:33.640Z,12.25
2018-12-26T20:45:14.098Z,13.13
2018-12-26T20:47:55.053Z,12.78
2018-12-26T20:50:36.203Z,10.93
2018-12-26T20:53:16.755Z,10.20
2018-12-26T20:55:57.487Z,9.90
2018-12-26T20:58:38.475Z,10.28
2018-12-26T21:01:20.731Z,11.48
2018-12-26T21:04:01.414Z,9.48
2018-12-26T21:06:42.267Z,10.18
2018-12-26T21:09:22.983Z,12.15
2018-12-26T21:12:03.394Z,10.48
2018-12-26T21:14:43.924Z,12.05
2018-12-26T21:17:24.487Z,12.65
2018-12-26T21:20:05.079Z,12.55
2018-12-26T21:22:45.712Z,9.68
2018-12-26T21:25:26.364Z,10.58
2018-12-26T21:28:06.975Z,10.80
2018-12-26T21:30:47.515Z,9.80
2018-12-26T21:33:28.104Z,9.05
2018-12-26T21:36:09.050Z,9.80
2018-12-26T21:38:49.716Z,8.53
2018-12-26T21:41:30.490Z,10.78
2018-12-26T21:44:11.588Z,8.25
2018-12-26T21:46:52.460Z,9.25
2018-12-26T21:49:33.337Z,10.85
2018-12-26T21:52:13.827Z,8.65
2018-12-26T21:54:54.439Z,8.70
2018-12-26T21:57:34.988Z,8.05
2018-12-26T22:00:15.900Z,7.97
2018-12-26T22:02:56.947Z,8.13
2018-12-26T22:05:37.619Z,8.63
2018-12-26T22:08:18.580Z,8.30
2018-12-26T22:10:59.427Z,8.40
2018-12-26T22:13:40.196Z,8.20
2018-12-26T22:16:21.136Z,7.80
2018-12-26T22:19:01.908Z,7.40
2018-12-26T22:21:42.803Z,7.33
2018-12-26T22:24:23.484Z,8.78
2018-12-26T22:27:04.327Z,7.30
2018-12-26T22:29:45.445Z,7.78
2018-12-26T22:32:30.606Z,6.85
2018-12-26T22:35:08.432Z,7.60
2018-12-26T22:37:49.276Z,6.30
2018-12-26T22:40:29.747Z,6.12
2018-12-26T22:43:10.288Z,6.80
2018-12-26T22:45:51.099Z,6.70
2018-12-26T22:48:31.728Z,7.05
2018-12-26T22:51:12.183Z,6.80
2018-12-26T22:53:52.580Z,6.30
2018-12-26T22:56:33.843Z,6.83
2018-12-26T22:59:14.373Z,6.92
2018-12-26T23:01:55.259Z,6.78
2018-12-26T23:04:35.899Z,6.80
2018-12-26T23:07:16.796Z,5.87
2018-12-26T23:09:57.316Z,7.12
2018-12-26T23:12:38.119Z,5.85
2018-12-26T23:15:18.487Z,5.17
2018-12-26T23:17:59.422Z,6.45
2018-12-26T23:20:40.428Z,5.50
2018-12-26T23:23:21.126Z,4.92
2018-12-26T23:26:01.937Z,5.10
2018-12-26T23:28:42.843Z,5.45
2018-12-26T23:31:23.668Z,5.87
2018-12-26T23:34:04.655Z,4.62
2018-12-26T23:36:45.303Z,5.17
2018-12-26T23:39:26.261Z,4.83
2018-12-26T23:42:06.946Z,4.50
2018-12-26T23:44:47.411Z,4.92
2018-12-26T23:47:27.663Z,5.37
2018-12-26T23:50:08.441Z,5.45
2018-12-26T23:52:48.821Z,5.47
2018-12-26T23:55:29.153Z,4.87
2018-12-26T23:58:09.876Z,5.47
